Time;durP1;ratioP1;P1;durP2;ratioP2;P2;SDS_P1;SDS_P2;PMS_P1;PMS_P2;Temp;Humidity;BMP_temperature;BMP_pressure;BME280_temperature;BME280_humidity;BME280_pressure;Samples;Min_cycle;Max_cycle;Signal;HPM_P1;HPM_P2
2024/02/09 00:01:32;;;;;;;;;;;;;;;6.87;100.00;96221.84;6110404;19;19907;-72
2024/02/09 00:03:35;;;;;;;;;;;;;;;6.91;100.00;96219.03;6107997;19;19921;-72
2024/02/09 00:05:35;;;;;;;;;;;;;;;6.87;100.00;96213.59;6110233;19;19911;-73
2024/02/09 00:07:35;;;;;;;;;;;;;;;6.85;100.00;96212.41;6108776;19;20284;-73
2024/02/09 00:09:36;;;;;;;;;;;;;;;6.83;100.00;96201.06;6109318;19;20368;-73
2024/02/09 00:11:36;;;;;;;;;;;;;;;6.89;100.00;96204.94;6109187;19;19911;-73
2024/02/09 00:13:36;;;;;;;;;;;;;;;6.91;100.00;96208.81;6110542;19;20215;-72
2024/02/09 00:15:36;;;;;;;;;;;;;;;6.92;100.00;96212.34;6110529;19;19911;-72
2024/02/09 00:17:37;;;;;;;;;;;;;;;6.93;100.00;96205.66;6108233;19;19915;-72
2024/02/09 00:19:37;;;;;;;;;;;;;;;6.92;100.00;96193.09;6110377;19;19922;-73
2024/02/09 00:21:37;;;;;;;;;;;;;;;6.88;100.00;96201.41;6110149;19;20317;-73
2024/02/09 00:23:38;;;;;;;;;;;;;;;6.82;100.00;96197.53;6109715;19;19948;-73
2024/02/09 00:25:38;;;;;;;;;;;;;;;6.86;100.00;96194.75;6109932;19;20244;-73
2024/02/09 00:27:39;;;;;;;;;;;;;;;6.85;100.00;96199.47;6109708;19;20274;-73
2024/02/09 00:29:39;;;;;;;;;;;;;;;6.82;100.00;96188.50;6110626;19;19914;-72
2024/02/09 00:31:41;;;;;;;;;;;;;;;6.79;100.00;96190.13;6109838;19;19914;-72
2024/02/09 00:33:42;;;;;;;;;;;;;;;6.74;100.00;96179.56;6109273;19;19922;-73
2024/02/09 00:35:42;;;;;;;;;;;;;;;6.71;100.00;96178.41;6109833;19;19910;-73
2024/02/09 00:37:43;;;;;;;;;;;;;;;6.70;100.00;96176.84;6109144;19;20351;-73
2024/02/09 00:39:43;;;;;;;;;;;;;;;6.62;100.00;96164.38;6108097;19;19906;-73
2024/02/09 00:41:43;;;;;;;;;;;;;;;6.56;100.00;96177.00;6110116;19;20237;-72
2024/02/09 00:43:46;;;;;;;;;;;;;;;6.50;100.00;96175.88;6109505;19;20437;-73
2024/02/09 00:45:51;;;;;;;;;;;;;;;6.43;100.00;96170.44;6109943;19;20011;-72
2024/02/09 00:47:53;;;;;;;;;;;;;;;6.36;100.00;96163.03;6108671;19;19938;-73
2024/02/09 00:49:54;;;;;;;;;;;;;;;6.30;100.00;96167.44;6109692;19;19919;-72
2024/02/09 00:51:55;;;;;;;;;;;;;;;6.24;100.00;96160.81;6109191;19;20268;-72
2024/02/09 00:53:55;;;;;;;;;;;;;;;6.20;100.00;96147.09;6109155;19;19914;-72
2024/02/09 00:55:55;;;;;;;;;;;;;;;6.17;100.00;96147.91;6110117;19;19915;-73
2024/02/09 00:57:59;;;;;;;;;;;;;;;6.14;100.00;96143.25;6109486;19;19950;-72
2024/02/09 00:59:59;;;;;;;;;;;;;;;6.09;100.00;96140.91;6109642;19;20335;-72
2024/02/09 01:02:01;;;;;;;;;;;;;;;6.08;100.00;96130.34;6109552;19;19915;-72
2024/02/09 01:04:01;;;;;;;;;;;;;;;6.05;100.00;96137.44;6108557;19;19974;-72
2024/02/09 01:06:06;;;;;;;;;;;;;;;6.06;100.00;96135.47;6109980;19;20233;-73
2024/02/09 01:08:08;;;;;;;;;;;;;;;6.04;100.00;96133.13;6107624;19;19919;-73
2024/02/09 01:10:09;;;;;;;;;;;;;;;6.03;100.00;96123.31;6108700;19;20395;-72
2024/02/09 02:46:34;;;;;;;;;;;;;;;6.69;100.00;96013.16;6102359;19;20501;-72
2024/02/09 03:04:46;;;;;;;;;;;;;;;6.86;100.00;95996.84;6112789;19;19938;-72
2024/02/09 03:06:47;;;;;;;;;;;;;;;6.90;100.00;95986.59;6110528;19;19922;-72
2024/02/09 03:08:47;;;;;;;;;;;;;;;6.91;100.00;95997.16;6111643;19;19915;-72
2024/02/09 03:10:47;;;;;;;;;;;;;;;7.00;100.00;95985.66;6112105;19;19921;-72
2024/02/09 03:12:48;;;;;;;;;;;;;;;7.03;100.00;95990.31;6112014;19;19918;-72
2024/02/09 03:14:48;;;;;;;;;;;;;;;7.10;100.00;95979.22;6109833;19;19942;-72
2024/02/09 03:16:48;;;;;;;;;;;;;;;7.11;100.00;95980.75;6111939;19;20220;-72
2024/02/09 03:18:49;;;;;;;;;;;;;;;7.12;100.00;95985.09;6108935;19;19922;-73
2024/02/09 03:20:49;;;;;;;;;;;;;;;7.08;100.00;95980.84;6111420;19;20265;-72
2024/02/09 03:22:49;;;;;;;;;;;;;;;7.10;100.00;95970.97;6111971;19;20312;-72
2024/02/09 03:24:49;;;;;;;;;;;;;;;7.03;100.00;95960.06;6111954;19;20347;-73
2024/02/09 03:26:49;;;;;;;;;;;;;;;7.00;100.00;95956.19;6109708;19;19935;-72
2024/02/09 03:28:50;;;;;;;;;;;;;;;7.04;100.00;95965.19;6111033;19;19915;-73
2024/02/09 03:30:50;;;;;;;;;;;;;;;7.09;100.00;95960.38;6112081;19;20625;-73
2024/02/09 03:32:51;;;;;;;;;;;;;;;7.15;100.00;95955.97;6111739;19;20353;-72
2024/02/09 03:34:51;;;;;;;;;;;;;;;7.16;100.00;95963.03;6108645;19;20015;-73
2024/02/09 03:36:54;;;;;;;;;;;;;;;7.16;100.00;95958.31;6112754;19;19922;-73
2024/02/09 03:38:54;;;;;;;;;;;;;;;7.11;100.00;95950.53;6110573;19;19914;-73
2024/02/09 03:40:54;;;;;;;;;;;;;;;7.06;100.00;95948.25;6111713;19;20316;-73
2024/02/09 03:42:55;;;;;;;;;;;;;;;7.10;100.00;95948.19;6111414;19;20272;-73
2024/02/09 03:44:57;;;;;;;;;;;;;;;7.04;100.00;95940.44;6109974;19;19942;-73
2024/02/09 03:46:58;;;;;;;;;;;;;;;7.06;100.00;95940.00;6105599;19;20323;-73
2024/02/09 03:48:58;;;;;;;;;;;;;;;7.01;100.00;95934.97;6096169;19;19913;-73
2024/02/09 03:50:58;;;;;;;;;;;;;;;7.10;100.00;95928.94;6097627;19;20202;-73
2024/02/09 03:52:58;;;;;;;;;;;;;;;7.07;100.00;95930.56;6097531;19;19927;-73
2024/02/09 03:54:59;;;;;;;;;;;;;;;7.13;100.00;95928.91;6095916;19;19978;-73
2024/02/09 03:56:59;;;;;;;;;;;;;;;7.13;100.00;95934.41;6096805;19;20235;-73
2024/02/09 03:58:59;;;;;;;;;;;;;;;7.20;100.00;95931.53;6095562;19;20345;-73
2024/02/09 04:01:00;;;;;;;;;;;;;;;7.28;100.00;95926.69;6097377;19;20335;-73
2024/02/09 04:03:00;;;;;;;;;;;;;;;7.30;100.00;95924.31;6096868;19;19903;-73
2024/02/09 04:05:02;;;;;;;;;;;;;;;7.25;100.00;95928.31;6097913;19;19903;-73
2024/02/09 04:07:05;;;;;;;;;;;;;;;7.22;100.00;95929.16;6095787;19;19926;-73
2024/02/09 04:09:06;;;;;;;;;;;;;;;7.19;100.00;95923.69;6096894;19;20339;-73
2024/02/09 04:11:06;;;;;;;;;;;;;;;7.22;100.00;95920.91;6096536;19;19923;-73
2024/02/09 04:13:06;;;;;;;;;;;;;;;7.24;100.00;95910.25;6097194;19;20346;-73
2024/02/09 04:15:06;;;;;;;;;;;;;;;7.25;100.00;95909.06;6093893;19;20609;-73
2024/02/09 04:17:07;;;;;;;;;;;;;;;7.20;100.00;95917.78;6096440;19;19933;-73
2024/02/09 04:19:07;;;;;;;;;;;;;;;7.18;100.00;95917.41;6094364;19;19968;-73
2024/02/09 04:21:09;;;;;;;;;;;;;;;7.17;100.00;95913.13;6095653;19;19933;-73
2024/02/09 04:23:10;;;;;;;;;;;;;;;7.11;100.00;95914.78;6095327;19;20030;-73
2024/02/09 04:25:10;;;;;;;;;;;;;;;7.11;100.00;95916.75;6094573;19;20208;-73
2024/02/09 04:27:11;;;;;;;;;;;;;;;7.13;100.00;95914.38;6095539;19;19918;-73
2024/02/09 04:29:15;;;;;;;;;;;;;;;7.11;100.00;95912.03;6094085;19;19914;-73
2024/02/09 04:31:15;;;;;;;;;;;;;;;7.19;100.00;95910.72;6096173;19;19923;-73
2024/02/09 04:33:15;;;;;;;;;;;;;;;7.18;100.00;95906.41;6096125;19;19958;-73
2024/02/09 04:35:16;;;;;;;;;;;;;;;7.16;100.00;95914.31;6095751;19;19906;-73
2024/02/09 04:37:21;;;;;;;;;;;;;;;7.15;100.00;95904.50;6094921;19;20355;-73
2024/02/09 04:39:21;;;;;;;;;;;;;;;7.14;100.00;95910.44;6095179;19;19955;-73
2024/02/09 04:41:21;;;;;;;;;;;;;;;7.12;100.00;95907.34;6095590;19;19914;-73
2024/02/09 04:43:22;;;;;;;;;;;;;;;7.12;100.00;95913.59;6095588;19;19903;-73
2024/02/09 04:45:22;;;;;;;;;;;;;;;7.14;100.00;95907.69;6094029;19;19907;-73
2024/02/09 04:47:23;;;;;;;;;;;;;;;7.11;100.00;95900.25;6101311;19;20349;-73
2024/02/09 04:49:24;;;;;;;;;;;;;;;7.14;100.00;95896.69;6110650;19;19914;-73
2024/02/09 04:51:24;;;;;;;;;;;;;;;7.23;100.00;95899.69;6109708;19;20312;-73
2024/02/09 04:53:25;;;;;;;;;;;;;;;7.33;100.00;95899.47;6108930;19;19938;-73
2024/02/09 04:55:25;;;;;;;;;;;;;;;7.32;100.00;95897.94;6107656;19;20142;-73
2024/02/09 04:57:26;;;;;;;;;;;;;;;7.35;100.00;95892.78;6107349;19;20332;-73
2024/02/09 04:59:28;;;;;;;;;;;;;;;7.30;100.00;95894.06;6108494;19;19911;-73
2024/02/09 05:01:29;;;;;;;;;;;;;;;7.33;100.00;95890.47;6108371;19;19935;-73
2024/02/09 05:03:29;;;;;;;;;;;;;;;7.39;100.00;95893.50;6109035;19;19907;-73
2024/02/09 05:05:32;;;;;;;;;;;;;;;7.31;100.00;95885.38;6108497;19;19907;-73
2024/02/09 05:07:33;;;;;;;;;;;;;;;7.39;100.00;95890.75;6106764;19;19914;-73
2024/02/09 05:09:33;;;;;;;;;;;;;;;7.40;100.00;95886.81;6106623;19;19962;-73
2024/02/09 05:11:36;;;;;;;;;;;;;;;7.39;100.00;95893.50;6108043;19;19910;-73
2024/02/09 05:13:37;;;;;;;;;;;;;;;7.36;100.00;95881.34;6108559;19;19919;-73
2024/02/09 05:15:37;;;;;;;;;;;;;;;7.36;100.00;95881.34;6108345;19;19948;-73
2024/02/09 05:17:39;;;;;;;;;;;;;;;7.25;100.00;95889.81;6106688;19;19907;-73
2024/02/09 05:19:40;;;;;;;;;;;;;;;7.27;100.00;95886.63;6107626;19;19918;-73
2024/02/09 05:21:41;;;;;;;;;;;;;;;7.24;100.00;95891.00;6108126;19;19921;-73
2024/02/09 05:23:42;;;;;;;;;;;;;;;7.26;100.00;95888.59;6107792;19;20306;-73
2024/02/09 05:25:42;;;;;;;;;;;;;;;7.29;100.00;95887.78;6107738;19;19922;-73
2024/02/09 05:27:45;;;;;;;;;;;;;;;7.33;100.00;95895.97;6106687;19;19957;-73
2024/02/09 05:29:46;;;;;;;;;;;;;;;7.31;100.00;95896.38;6107087;19;19911;-73
2024/02/09 05:31:46;;;;;;;;;;;;;;;7.40;100.00;95897.81;6106555;19;20134;-73
2024/02/09 05:33:46;;;;;;;;;;;;;;;7.44;100.00;95893.78;6107736;19;19919;-73
2024/02/09 05:35:51;;;;;;;;;;;;;;;7.46;100.00;95894.16;6108058;19;19919;-73
2024/02/09 05:37:51;;;;;;;;;;;;;;;7.50;100.00;95896.84;6107001;19;19923;-73
2024/02/09 05:39:52;;;;;;;;;;;;;;;7.48;100.00;95894.53;6106756;19;20519;-73
2024/02/09 05:41:52;;;;;;;;;;;;;;;7.48;100.00;95888.25;6108682;19;19978;-73
2024/02/09 05:43:52;;;;;;;;;;;;;;;7.50;100.00;95885.84;6107520;19;20361;-73
2024/02/09 05:45:52;;;;;;;;;;;;;;;7.48;100.00;95885.50;6107942;19;20324;-73
2024/02/09 05:47:53;;;;;;;;;;;;;;;7.48;100.00;95891.00;6108048;19;19925;-73
2024/02/09 05:49:53;;;;;;;;;;;;;;;7.44;100.00;95880.03;6106841;19;20312;-73
2024/02/09 05:51:56;;;;;;;;;;;;;;;7.41;100.00;95880.09;6104716;19;19914;-73
2024/02/09 05:53:56;;;;;;;;;;;;;;;7.32;100.00;95889.69;6106179;19;19910;-73
2024/02/09 05:55:57;;;;;;;;;;;;;;;7.36;100.00;95877.84;6106116;19;19981;-73
2024/02/09 05:57:58;;;;;;;;;;;;;;;7.32;100.00;95881.44;6104428;19;19919;-73
2024/02/09 05:59:59;;;;;;;;;;;;;;;7.32;100.00;95878.69;6107453;19;20416;-73
2024/02/09 06:02:00;;;;;;;;;;;;;;;7.39;100.00;95877.78;6108206;19;19918;-73
2024/02/09 06:04:00;;;;;;;;;;;;;;;7.42;100.00;95874.19;6106852;19;20655;-73
2024/02/09 06:06:04;;;;;;;;;;;;;;;7.44;100.00;95876.50;6106283;19;19929;-73
2024/02/09 06:08:08;;;;;;;;;;;;;;;7.45;100.00;95870.59;6104168;19;19914;-73
2024/02/09 06:10:11;;;;;;;;;;;;;;;7.42;100.00;95873.41;6107624;19;19952;-73
2024/02/09 06:12:13;;;;;;;;;;;;;;;7.44;100.00;95862.75;6106665;19;19919;-73
2024/02/09 06:14:14;;;;;;;;;;;;;;;7.46;100.00;95872.16;6104752;19;19919;-73
2024/02/09 06:16:15;;;;;;;;;;;;;;;7.45;100.00;95878.09;6107844;19;19937;-73
2024/02/09 06:18:15;;;;;;;;;;;;;;;7.47;100.00;95875.69;6105625;19;19923;-73
2024/02/09 06:20:22;;;;;;;;;;;;;;;7.47;100.00;95881.19;6107243;19;19926;-73
2024/02/09 06:22:22;;;;;;;;;;;;;;;7.39;100.00;95880.53;6106288;19;19923;-73
2024/02/09 06:24:24;;;;;;;;;;;;;;;7.35;100.00;95874.31;5969562;19;20296;-73
2024/02/09 06:26:24;;;;;;;;;;;;;;;7.25;100.00;95867.81;6106280;19;19927;-73
2024/02/09 06:28:24;;;;;;;;;;;;;;;7.24;100.00;95868.22;6107099;19;19923;-73
2024/02/09 06:30:24;;;;;;;;;;;;;;;7.22;100.00;95874.16;6106819;19;19939;-73
2024/02/09 06:32:26;;;;;;;;;;;;;;;7.20;100.00;95873.78;6107093;19;21075;-73
2024/02/09 06:34:26;;;;;;;;;;;;;;;7.20;100.00;95881.25;6107796;19;19911;-73
2024/02/09 06:36:27;;;;;;;;;;;;;;;7.17;100.00;95871.88;6106519;19;19910;-73
2024/02/09 06:38:27;;;;;;;;;;;;;;;7.19;100.00;95874.19;6109058;19;19935;-73
2024/02/09 06:40:27;;;;;;;;;;;;;;;7.17;100.00;95876.59;6105494;19;19928;-73
2024/02/09 06:42:28;;;;;;;;;;;;;;;7.16;100.00;95875.03;6112085;19;19940;-73
2024/02/09 06:44:30;;;;;;;;;;;;;;;7.13;100.00;95875.88;6112116;19;19910;-73
2024/02/09 06:46:31;;;;;;;;;;;;;;;7.11;100.00;95879.03;6112211;19;19994;-73
2024/02/09 06:48:31;;;;;;;;;;;;;;;7.08;100.00;95879.09;6112071;19;19932;-73
2024/02/09 06:50:34;;;;;;;;;;;;;;;7.07;100.00;95891.28;6111234;19;19915;-73
2024/02/09 06:52:34;;;;;;;;;;;;;;;7.04;100.00;95879.94;6112496;19;20337;-73
2024/02/09 06:54:34;;;;;;;;;;;;;;;7.12;100.00;95885.34;6110963;19;20365;-73
2024/02/09 06:56:34;;;;;;;;;;;;;;;7.12;100.00;95880.59;6111505;19;20320;-73
2024/02/09 06:58:35;;;;;;;;;;;;;;;7.10;100.00;95898.69;6110010;19;19919;-73
2024/02/09 07:00:36;;;;;;;;;;;;;;;7.10;100.00;95899.47;6111517;19;19930;-73
2024/02/09 07:02:37;;;;;;;;;;;;;;;7.10;100.00;95895.94;6112833;19;20214;-73
2024/02/09 07:04:37;;;;;;;;;;;;;;;7.10;100.00;95884.94;6111980;19;19938;-73
2024/02/09 07:06:39;;;;;;;;;;;;;;;7.08;100.00;95899.13;6112310;19;19931;-73
2024/02/09 07:08:40;;;;;;;;;;;;;;;7.06;100.00;95898.78;6111389;19;20321;-73
2024/02/09 07:10:40;;;;;;;;;;;;;;;7.02;100.00;95892.53;6112364;19;20816;-73
2024/02/09 07:12:40;;;;;;;;;;;;;;;7.04;100.00;95904.69;6111334;19;19930;-73
2024/02/09 07:14:41;;;;;;;;;;;;;;;7.04;100.00;95903.91;6111798;19;20382;-74
2024/02/09 07:16:42;;;;;;;;;;;;;;;7.04;100.00;95901.94;6110491;19;19911;-73
2024/02/09 07:18:42;;;;;;;;;;;;;;;7.02;100.00;95904.31;6110095;19;20309;-73
2024/02/09 07:20:43;;;;;;;;;;;;;;;7.07;100.00;95903.06;6110476;19;19919;-73
2024/02/09 07:22:45;;;;;;;;;;;;;;;7.12;100.00;95897.09;6112066;19;19932;-73
2024/02/09 07:24:45;;;;;;;;;;;;;;;7.17;100.00;95907.63;6111456;19;20424;-73
2024/02/09 07:26:45;;;;;;;;;;;;;;;7.17;100.00;95896.63;6111463;19;19918;-73
2024/02/09 07:28:48;;;;;;;;;;;;;;;7.31;100.00;95906.59;6109065;19;19920;-73
2024/02/09 07:30:48;;;;;;;;;;;;;;;7.39;100.00;95902.53;6104184;19;19918;-73
2024/02/09 07:32:49;;;;;;;;;;;;;;;7.41;100.00;95907.63;6111278;19;20010;-73
2024/02/09 07:34:51;;;;;;;;;;;;;;;7.48;100.00;95910.25;6110755;19;19910;-73
2024/02/09 07:36:51;;;;;;;;;;;;;;;7.64;100.00;95907.59;6111603;19;20314;-73
2024/02/09 07:38:51;;;;;;;;;;;;;;;7.76;100.00;95909.72;6111066;19;19911;-73
2024/02/09 07:40:51;;;;;;;;;;;;;;;7.80;100.00;95907.69;6110538;19;20339;-73
2024/02/09 07:42:51;;;;;;;;;;;;;;;7.81;100.00;95908.47;6111317;19;20328;-73
2024/02/09 07:44:52;;;;;;;;;;;;;;;7.85;100.00;95903.66;6111334;19;19939;-73
2024/02/09 07:46:55;;;;;;;;;;;;;;;7.84;100.00;95899.34;6100372;19;19970;-73
2024/02/09 07:48:56;;;;;;;;;;;;;;;7.91;100.00;95899.22;6109299;19;19911;-73
2024/02/09 07:50:57;;;;;;;;;;;;;;;7.87;100.00;95893.03;6110923;19;19978;-74
2024/02/09 07:52:58;;;;;;;;;;;;;;;7.84;100.00;95889.13;6111651;19;19911;-73
2024/02/09 07:54:58;;;;;;;;;;;;;;;7.83;100.00;95901.34;6108152;19;19934;-74
2024/02/09 07:56:59;;;;;;;;;;;;;;;7.85;100.00;95898.16;6110479;19;19919;-73
2024/02/09 07:58:59;;;;;;;;;;;;;;;7.84;100.00;95902.88;6110112;19;19915;-74
2024/02/09 08:00:59;;;;;;;;;;;;;;;7.87;100.00;95904.81;6110582;19;19930;-73
2024/02/09 08:03:00;;;;;;;;;;;;;;;7.82;100.00;95908.03;6111176;19;19917;-74
2024/02/09 08:05:08;;;;;;;;;;;;;;;7.90;100.00;95911.44;6108666;19;19917;-73
2024/02/09 08:07:09;;;;;;;;;;;;;;;7.96;100.00;95895.22;6108788;19;19913;-73
2024/02/09 08:09:09;;;;;;;;;;;;;;;7.94;100.00;95903.88;6110555;19;19915;-73
2024/02/09 08:11:09;;;;;;;;;;;;;;;8.01;100.00;95905.72;6110365;19;19918;-73
2024/02/09 08:13:09;;;;;;;;;;;;;;;7.98;100.00;95901.84;6110349;19;19934;-73
2024/02/09 08:15:10;;;;;;;;;;;;;;;7.85;100.00;95892.66;6106943;19;19919;-73
2024/02/09 08:17:10;;;;;;;;;;;;;;;7.92;100.00;95894.50;6109262;19;19922;-73
2024/02/09 08:19:11;;;;;;;;;;;;;;;7.93;100.00;95894.06;6108309;19;20286;-73
2024/02/09 08:21:11;;;;;;;;;;;;;;;7.99;100.00;95894.34;6110692;19;19934;-73
2024/02/09 08:23:12;;;;;;;;;;;;;;;7.95;100.00;95894.44;6110251;19;19922;-73
2024/02/09 08:25:12;;;;;;;;;;;;;;;7.91;100.00;95892.94;6108147;19;19911;-73
2024/02/09 08:27:12;;;;;;;;;;;;;;;7.96;100.00;95884.97;6109308;19;19911;-74
2024/02/09 08:29:13;;;;;;;;;;;;;;;7.99;100.00;95886.09;6110090;19;19910;-73
2024/02/09 08:31:14;;;;;;;;;;;;;;;8.01;100.00;95876.22;6110465;19;19907;-73
2024/02/09 08:33:15;;;;;;;;;;;;;;;8.10;100.00;95881.16;6109457;19;19911;-73
2024/02/09 08:35:15;;;;;;;;;;;;;;;8.05;100.00;95881.66;6109479;19;19943;-73
2024/02/09 08:37:15;;;;;;;;;;;;;;;8.09;100.00;95887.84;6109212;19;19914;-73
2024/02/09 08:39:15;;;;;;;;;;;;;;;8.08;100.00;95887.09;6108824;19;19970;-73
2024/02/09 08:41:18;;;;;;;;;;;;;;;8.11;100.00;95885.47;6110342;19;20358;-73
2024/02/09 08:43:18;;;;;;;;;;;;;;;8.10;100.00;95890.19;6109555;19;20273;-73
2024/02/09 08:45:18;;;;;;;;;;;;;;;8.16;100.00;95882.97;6108673;19;19946;-73
2024/02/09 08:47:19;;;;;;;;;;;;;;;8.17;100.00;95879.03;6099441;19;19919;-74
2024/02/09 08:49:21;;;;;;;;;;;;;;;8.17;100.00;95879.03;6095233;19;20279;-74
2024/02/09 08:51:21;;;;;;;;;;;;;;;8.15;100.00;95872.41;6095355;19;20568;-73
2024/02/09 08:53:21;;;;;;;;;;;;;;;8.15;100.00;95888.91;6095813;19;19982;-74
2024/02/09 08:55:22;;;;;;;;;;;;;;;8.22;100.00;95872.25;6095192;19;19911;-73
2024/02/09 08:57:22;;;;;;;;;;;;;;;8.24;100.00;95880.09;6094526;19;20957;-74
2024/02/09 08:59:22;;;;;;;;;;;;;;;8.29;100.00;95883.13;6095953;19;19911;-73
2024/02/09 09:01:23;;;;;;;;;;;;;;;8.27;100.00;95880.00;6093471;19;20257;-74
2024/02/09 09:03:23;;;;;;;;;;;;;;;8.26;100.00;95885.94;6095813;19;19915;-74
2024/02/09 09:05:23;;;;;;;;;;;;;;;8.27;100.00;95891.03;6095026;19;19948;-73
2024/02/09 09:07:23;;;;;;;;;;;;;;;8.26;100.00;95886.72;6094381;19;19910;-73
2024/02/09 09:09:25;;;;;;;;;;;;;;;8.28;100.00;95887.09;6095127;19;19986;-74
2024/02/09 09:11:25;;;;;;;;;;;;;;;8.31;100.00;95893.72;6094473;19;20365;-74
2024/02/09 09:13:25;;;;;;;;;;;;;;;8.41;100.00;95889.97;6094378;19;20301;-74
2024/02/09 09:15:26;;;;;;;;;;;;;;;8.52;100.00;95892.50;6094249;19;20244;-74
2024/02/09 09:17:26;;;;;;;;;;;;;;;8.64;100.00;95892.63;6093702;19;20413;-73
2024/02/09 09:19:26;;;;;;;;;;;;;;;8.64;100.00;95889.88;6094549;19;20756;-74
2024/02/09 09:21:27;;;;;;;;;;;;;;;8.71;100.00;95891.69;6094418;19;20364;-74
2024/02/09 09:23:28;;;;;;;;;;;;;;;8.82;100.00;95888.69;6095455;19;19936;-74
2024/02/09 09:25:31;;;;;;;;;;;;;;;8.78;100.00;95891.53;6094747;19;19915;-74
2024/02/09 09:27:31;;;;;;;;;;;;;;;8.78;100.00;95877.75;6093294;19;19917;-74
2024/02/09 09:29:32;;;;;;;;;;;;;;;8.78;100.00;95874.22;6094620;19;20412;-74
2024/02/09 09:31:32;;;;;;;;;;;;;;;8.78;100.00;95875.00;6094137;19;20308;-74
2024/02/09 09:33:32;;;;;;;;;;;;;;;8.80;100.00;95872.56;6093891;19;20332;-74
2024/02/09 09:35:33;;;;;;;;;;;;;;;8.82;100.00;95878.44;6093684;19;20237;-74
2024/02/09 09:37:33;;;;;;;;;;;;;;;8.84;100.00;95878.78;6093505;19;19911;-74
2024/02/09 09:39:33;;;;;;;;;;;;;;;8.88;100.00;95884.22;6093330;19;19931;-74
2024/02/09 09:41:34;;;;;;;;;;;;;;;8.85;100.00;95869.28;6093875;19;19907;-74
2024/02/09 09:43:34;;;;;;;;;;;;;;;8.92;100.00;95876.63;6094280;19;19907;-74
2024/02/09 09:45:35;;;;;;;;;;;;;;;8.90;100.00;95879.81;6092844;19;20284;-74
2024/02/09 09:47:38;;;;;;;;;;;;;;;8.87;100.00;95883.44;6100812;19;19982;-74
2024/02/09 09:49:41;;;;;;;;;;;;;;;8.86;100.00;95887.41;6107804;19;19918;-73
2024/02/09 09:51:46;;;;;;;;;;;;;;;8.87;100.00;95896.47;6108723;19;20601;-73
2024/02/09 09:53:50;;;;;;;;;;;;;;;8.96;100.00;95885.59;6108306;19;19907;-74
2024/02/09 09:55:51;;;;;;;;;;;;;;;9.00;100.00;95894.56;6107321;19;19914;-73
2024/02/09 09:57:52;;;;;;;;;;;;;;;9.11;100.00;95895.09;6107225;19;19918;-74
2024/02/09 09:59:52;;;;;;;;;;;;;;;9.11;100.00;95889.56;6107360;19;19915;-74
2024/02/09 10:01:54;;;;;;;;;;;;;;;9.16;100.00;95891.81;6107312;19;19911;-73
2024/02/09 10:03:55;;;;;;;;;;;;;;;9.19;100.00;95890.19;6107324;19;19910;-73
2024/02/09 10:05:56;;;;;;;;;;;;;;;9.25;100.00;95882.91;6107694;19;19921;-74
2024/02/09 10:07:57;;;;;;;;;;;;;;;9.24;100.00;95879.38;6106571;19;19921;-74
2024/02/09 10:09:57;;;;;;;;;;;;;;;9.34;100.00;95890.59;6107789;19;19907;-74
2024/02/09 10:11:57;;;;;;;;;;;;;;;9.42;100.00;95886.44;6107594;19;19907;-74
2024/02/09 10:13:58;;;;;;;;;;;;;;;9.52;100.00;95891.72;6111113;19;19914;-74
2024/02/09 10:15:59;;;;;;;;;;;;;;;9.53;100.00;95884.97;6113549;19;19907;-74
2024/02/09 10:18:01;;;;;;;;;;;;;;;9.61;100.00;95890.31;6111526;19;20442;-74
2024/02/09 10:20:03;;;;;;;;;;;;;;;9.68;100.00;95885.38;6111700;19;20174;-73
2024/02/09 10:22:04;;;;;;;;;;;;;;;9.80;100.00;95895.69;6112811;19;19915;-74
2024/02/09 10:24:04;;;;;;;;;;;;;;;9.89;100.00;95892.31;6112789;19;19970;-74
2024/02/09 10:26:05;;;;;;;;;;;;;;;9.95;100.00;95885.03;6112616;19;20442;-74
2024/02/09 10:28:06;;;;;;;;;;;;;;;9.98;100.00;95883.38;6111332;19;19914;-74
2024/02/09 10:30:06;;;;;;;;;;;;;;;10.01;100.00;95883.31;6110434;19;20140;-74
2024/02/09 10:32:07;;;;;;;;;;;;;;;9.94;100.00;95872.44;6111026;19;19915;-74
2024/02/09 10:34:08;;;;;;;;;;;;;;;9.86;100.00;95876.63;6112077;19;19910;-74
2024/02/09 10:36:08;;;;;;;;;;;;;;;9.94;100.00;95877.97;6112112;19;20228;-74
2024/02/09 10:38:09;;;;;;;;;;;;;;;10.01;100.00;95868.69;6111875;19;19945;-74
2024/02/09 10:40:10;;;;;;;;;;;;;;;10.08;100.00;95868.50;6111297;19;19915;-74
2024/02/09 10:42:14;;;;;;;;;;;;;;;10.17;100.00;95860.34;6111817;19;19915;-74
2024/02/09 10:44:17;;;;;;;;;;;;;;;10.19;100.00;95857.94;6112022;19;19966;-74
2024/02/09 10:46:18;;;;;;;;;;;;;;;10.30;100.00;95855.66;6112685;19;19926;-74
2024/02/09 10:48:24;;;;;;;;;;;;;;;10.29;100.00;95859.63;6111479;19;19918;-74
2024/02/09 10:50:28;;;;;;;;;;;;;;;10.32;100.00;95858.75;6111416;19;19990;-74
2024/02/09 10:52:29;;;;;;;;;;;;;;;10.36;100.00;95847.59;6112023;19;19926;-74
2024/02/09 10:54:46;;;;;;;;;;;;;;;10.33;100.00;95863.06;6112210;19;19922;-74
2024/02/09 10:56:47;;;;;;;;;;;;;;;10.39;100.00;95868.81;6113430;19;19915;-74
2024/02/09 10:58:48;;;;;;;;;;;;;;;10.41;100.00;95858.88;6111231;19;19937;-74
2024/02/09 11:00:49;;;;;;;;;;;;;;;10.50;100.00;95862.97;6113244;19;19923;-74
2024/02/09 11:02:49;;;;;;;;;;;;;;;10.51;100.00;95857.03;6112839;19;19928;-74
2024/02/09 11:04:49;;;;;;;;;;;;;;;10.46;100.00;95867.84;6112551;19;19914;-74
2024/02/09 11:06:50;;;;;;;;;;;;;;;10.45;100.00;95863.53;6112914;19;19978;-74
2024/02/09 11:08:50;;;;;;;;;;;;;;;10.49;100.00;95850.38;6111959;19;19923;-74
2024/02/09 11:11:00;;;;;;;;;;;;;;;10.57;100.00;95855.25;6112554;19;19919;-74
2024/02/09 11:13:01;;;;;;;;;;;;;;;10.57;100.00;95858.00;6112824;19;20278;-74
2024/02/09 11:15:14;;;;;;;;;;;;;;;10.61;100.00;95850.38;6112449;19;19986;-74
2024/02/09 11:17:21;;;;;;;;;;;;;;;10.63;100.00;95853.47;6111728;19;19978;-74
2024/02/09 11:19:22;;;;;;;;;;;;;;;10.67;100.00;95853.34;6111639;19;19915;-74
2024/02/09 11:21:24;;;;;;;;;;;;;;;10.75;100.00;95842.84;6111962;19;19918;-74
2024/02/09 11:23:26;;;;;;;;;;;;;;;10.76;100.00;95845.19;6110560;19;20332;-74
2024/02/09 11:25:29;;;;;;;;;;;;;;;10.73;100.00;95839.75;6111563;19;19915;-74
2024/02/09 11:27:30;;;;;;;;;;;;;;;10.81;100.00;95832.78;6110632;19;19911;-74
2024/02/09 11:29:34;;;;;;;;;;;;;;;10.80;100.00;95831.25;6110943;19;19947;-74
2024/02/09 11:31:35;;;;;;;;;;;;;;;10.81;100.00;95827.25;6112150;19;19919;-74
2024/02/09 11:33:35;;;;;;;;;;;;;;;10.84;100.00;95827.16;6111588;19;19923;-74
2024/02/09 11:35:35;;;;;;;;;;;;;;;10.90;100.00;95832.91;6111889;19;19923;-74
2024/02/09 11:37:36;;;;;;;;;;;;;;;10.88;100.00;95829.81;6110343;19;19933;-74
2024/02/09 11:39:37;;;;;;;;;;;;;;;10.93;100.00;95830.03;6111767;19;19934;-74
2024/02/09 11:41:37;;;;;;;;;;;;;;;11.01;100.00;95832.56;6111967;19;19926;-74
2024/02/09 11:43:37;;;;;;;;;;;;;;;11.03;100.00;95841.97;6112065;19;19914;-74
2024/02/09 11:45:39;;;;;;;;;;;;;;;11.04;100.00;95837.19;6111775;19;19946;-74
2024/02/09 11:47:39;;;;;;;;;;;;;;;11.07;100.00;95834.31;6110579;19;19949;-74
2024/02/09 11:49:43;;;;;;;;;;;;;;;11.17;100.00;95846.25;6112224;19;19935;-74
2024/02/09 11:51:44;;;;;;;;;;;;;;;11.30;100.00;95835.94;6111748;19;19915;-74
2024/02/09 11:53:44;;;;;;;;;;;;;;;11.38;100.00;95847.53;6111657;19;19993;-74
2024/02/09 11:55:44;;;;;;;;;;;;;;;11.50;100.00;95833.66;6110374;19;19967;-74
2024/02/09 11:57:45;;;;;;;;;;;;;;;11.61;100.00;95836.06;6110690;19;20224;-74
2024/02/09 11:59:45;;;;;;;;;;;;;;;11.64;100.00;95843.47;6111281;19;19919;-74
2024/02/09 12:01:45;;;;;;;;;;;;;;;11.61;100.00;95847.13;6111709;19;19921;-74
2024/02/09 12:03:46;;;;;;;;;;;;;;;11.59;100.00;95849.59;6110940;19;19914;-74
2024/02/09 12:05:46;;;;;;;;;;;;;;;11.60;100.00;95837.28;6110844;19;19932;-74
2024/02/09 12:07:47;;;;;;;;;;;;;;;11.61;100.00;95838.06;6107868;19;19930;-74
2024/02/09 12:09:49;;;;;;;;;;;;;;;11.68;100.00;95824.75;6110934;19;20264;-74
2024/02/09 12:11:50;;;;;;;;;;;;;;;11.64;100.00;95824.06;6110432;19;19930;-74
2024/02/09 12:13:50;;;;;;;;;;;;;;;11.66;100.00;95824.41;6110542;19;20323;-74
2024/02/09 12:15:51;;;;;;;;;;;;;;;11.62;100.00;95836.84;6111460;19;19930;-74
2024/02/09 12:17:52;;;;;;;;;;;;;;;11.68;100.00;95846.13;6110250;19;19915;-74
2024/02/09 12:19:52;;;;;;;;;;;;;;;11.69;100.00;95845.66;6110370;19;19931;-74